Time;durP1;ratioP1;P1;durP2;ratioP2;P2;SDS_P1;SDS_P2;PMS_P1;PMS_P2;Temp;Humidity;BMP_temperature;BMP_pressure;BME280_temperature;BME280_humidity;BME280_pressure;Samples;Min_cycle;Max_cycle;Signal;HPM_P1;HPM_P2
2021/10/08 00:02:16;;;;;;;53.00;11.43;;;;;;;-145.18;0.00;102943.50;5069952;28;20024;-76
2021/10/08 00:04:41;;;;;;;50.50;10.07;;;;;;;-145.18;0.00;102943.50;5068716;28;20054;-77
2021/10/08 00:07:07;;;;;;;45.97;10.10;;;;;;;-145.18;0.00;102943.50;5069433;28;20020;-77
2021/10/08 00:09:32;;;;;;;50.47;9.83;;;;;;;-145.18;0.00;102943.50;5070075;28;20379;-76
2021/10/08 00:11:58;;;;;;;49.63;9.37;;;;;;;-145.18;0.00;102943.50;5074304;28;20065;-77
2021/10/08 00:14:25;;;;;;;46.37;9.30;;;;;;;-145.18;0.00;102943.50;5070922;28;20289;-76
2021/10/08 00:16:51;;;;;;;47.13;10.27;;;;;;;-145.18;0.00;102943.50;5069433;28;20374;-76
2021/10/08 00:19:16;;;;;;;46.70;10.10;;;;;;;-145.18;0.00;102943.50;5069012;28;20039;-76
2021/10/08 00:21:42;;;;;;;46.87;10.77;;;;;;;-145.18;0.00;102943.50;5069479;28;20193;-77
2021/10/08 00:24:07;;;;;;;41.90;9.97;;;;;;;-145.18;0.00;102943.50;5069904;28;20129;-76
2021/10/08 00:26:33;;;;;;;43.47;9.40;;;;;;;-145.18;0.00;102943.50;5070981;28;20020;-76
2021/10/08 00:28:59;;;;;;;50.47;10.27;;;;;;;-145.18;0.00;102943.50;5070492;28;20032;-76
2021/10/08 00:31:24;;;;;;;48.93;10.43;;;;;;;-145.18;0.00;102943.50;5071973;28;20646;-76
2021/10/08 00:33:50;;;;;;;41.23;9.70;;;;;;;-145.18;0.00;102943.50;5072944;28;20539;-76
2021/10/08 00:36:15;;;;;;;41.47;9.60;;;;;;;-145.18;0.00;102943.50;5069538;28;20617;-77
2021/10/08 00:38:41;;;;;;;38.43;9.50;;;;;;;-145.18;0.00;102943.50;5074100;28;20024;-76
2021/10/08 00:41:07;;;;;;;44.13;10.13;;;;;;;-145.18;0.00;102943.50;5072256;28;20055;-77
2021/10/08 00:43:33;;;;;;;42.17;9.50;;;;;;;-145.18;0.00;102943.50;5068612;28;20023;-77
2021/10/08 00:45:58;;;;;;;50.70;10.10;;;;;;;-145.18;0.00;102943.50;5075082;28;20081;-76
2021/10/08 00:48:24;;;;;;;45.27;9.70;;;;;;;-145.18;0.00;102943.50;5069531;28;20381;-76
2021/10/08 00:50:51;;;;;;;32.43;8.50;;;;;;;-145.18;0.00;102943.50;5064595;28;20109;-76
2021/10/08 00:53:18;;;;;;;41.70;9.30;;;;;;;-145.18;0.00;102943.50;5072029;28;20032;-76
2021/10/08 00:55:46;;;;;;;46.20;9.13;;;;;;;-145.18;0.00;102943.50;5077593;28;20111;-77
2021/10/08 00:58:14;;;;;;;37.83;8.10;;;;;;;-145.18;0.00;102943.50;5070011;28;20160;-76
2021/10/08 01:00:44;;;;;;;33.73;8.27;;;;;;;-145.18;0.00;102943.50;5076066;28;20048;-77
2021/10/08 01:03:10;;;;;;;37.43;8.60;;;;;;;-145.18;0.00;102943.50;5077313;28;20020;-77
2021/10/08 01:05:37;;;;;;;43.83;8.97;;;;;;;-145.18;0.00;102943.50;5074027;28;20028;-76
2021/10/08 01:08:04;;;;;;;39.63;7.87;;;;;;;-145.18;0.00;102943.50;5069711;28;20082;-77
2021/10/08 01:10:30;;;;;;;36.83;8.00;;;;;;;-145.18;0.00;102943.50;5076444;28;20044;-77
2021/10/08 01:12:55;;;;;;;40.00;9.30;;;;;;;-145.18;0.00;102943.50;5079710;28;20477;-77
2021/10/08 01:15:21;;;;;;;35.73;8.33;;;;;;;-145.18;0.00;102943.50;5075723;28;20062;-76
2021/10/08 01:17:53;;;;;;;45.40;9.60;;;;;;;-145.18;0.00;102943.50;5068340;28;20216;-77
2021/10/08 01:20:20;;;;;;;51.95;10.00;;;;;;;-145.18;0.00;102943.50;5073279;28;20520;-77
2021/10/08 01:22:46;;;;;;;35.20;8.30;;;;;;;-145.18;0.00;102943.50;5073880;28;20332;-77
2021/10/08 01:25:12;;;;;;;41.47;8.83;;;;;;;-145.18;0.00;102943.50;5070853;28;20240;-77
2021/10/08 01:27:37;;;;;;;40.07;8.40;;;;;;;-145.18;0.00;102943.50;5072214;28;20594;-76
2021/10/08 01:30:07;;;;;;;49.17;9.57;;;;;;;-145.18;0.00;102943.50;5071216;28;20031;-77
2021/10/08 01:32:34;;;;;;;46.93;9.87;;;;;;;-145.18;0.00;102943.50;5070556;28;20184;-77
2021/10/08 01:34:59;;;;;;;37.70;9.03;;;;;;;-145.18;0.00;102943.50;5071946;28;20037;-76
2021/10/08 01:37:25;;;;;;;40.70;8.73;;;;;;;-145.18;0.00;102943.50;5071859;28;20036;-77
2021/10/08 01:39:51;;;;;;;44.67;10.40;;;;;;;-145.18;0.00;102943.50;5073748;28;20549;-76
2021/10/08 01:42:16;;;;;;;42.80;9.57;;;;;;;-145.18;0.00;102943.50;5066682;28;20451;-77
2021/10/08 01:44:42;;;;;;;40.20;9.90;;;;;;;-145.18;0.00;102943.50;5069803;28;20024;-77
2021/10/08 01:47:08;;;;;;;43.37;9.90;;;;;;;-145.18;0.00;102943.50;5070632;28;20364;-76
2021/10/08 01:49:34;;;;;;;44.00;9.60;;;;;;;-145.18;0.00;102943.50;5066321;28;20421;-77
2021/10/08 01:52:00;;;;;;;38.30;9.70;;;;;;;-145.18;0.00;102943.50;5071694;28;20487;-77
2021/10/08 01:54:26;;;;;;;44.07;9.53;;;;;;;-145.18;0.00;102943.50;5069301;28;20046;-76
2021/10/08 01:56:52;;;;;;;49.37;10.43;;;;;;;-145.18;0.00;102943.50;5067327;28;20054;-77
2021/10/08 01:59:18;;;;;;;43.80;10.17;;;;;;;-145.18;0.00;102943.50;5075404;28;20050;-77
2021/10/08 02:01:43;;;;;;;40.60;10.53;;;;;;;-145.18;0.00;102943.50;5075495;28;20048;-77
2021/10/08 02:04:09;;;;;;;45.77;10.80;;;;;;;-145.18;0.00;102943.50;5074157;28;20059;-76
2021/10/08 02:06:35;;;;;;;43.27;10.03;;;;;;;-145.18;0.00;102943.50;5069493;28;20032;-76
2021/10/08 02:09:01;;;;;;;42.13;9.57;;;;;;;-145.18;0.00;102943.50;5073087;28;20231;-77
2021/10/08 02:11:27;;;;;;;50.40;11.17;;;;;;;-145.18;0.00;102943.50;5075088;28;20109;-77
2021/10/08 02:13:53;;;;;;;48.93;11.13;;;;;;;-145.18;0.00;102943.50;5068210;28;20541;-77
2021/10/08 02:16:21;;;;;;;47.17;10.27;;;;;;;-145.18;0.00;102943.50;5075625;28;20024;-77
2021/10/08 02:18:51;;;;;;;52.13;10.90;;;;;;;-145.18;0.00;102943.50;5066151;28;20051;-78
2021/10/08 02:21:18;;;;;;;52.73;11.40;;;;;;;-145.18;0.00;102943.50;5071436;28;20259;-77
2021/10/08 02:23:43;;;;;;;49.87;11.17;;;;;;;-145.18;0.00;102943.50;5069504;28;20012;-77
2021/10/08 02:26:09;;;;;;;50.77;10.93;;;;;;;-145.18;0.00;102943.50;5072789;28;20028;-76
2021/10/08 02:28:35;;;;;;;50.93;10.73;;;;;;;-145.18;0.00;102943.50;5067350;28;20039;-77
2021/10/08 02:31:00;;;;;;;46.50;11.00;;;;;;;-145.18;0.00;102943.50;5076672;28;20273;-77
2021/10/08 02:33:26;;;;;;;50.93;10.00;;;;;;;-145.18;0.00;102943.50;5070129;28;20028;-76
2021/10/08 02:35:51;;;;;;;50.67;9.90;;;;;;;-145.18;0.00;102943.50;5071027;28;20021;-77
2021/10/08 02:38:19;;;;;;;57.03;11.77;;;;;;;-145.18;0.00;102943.50;5068465;28;20032;-77
2021/10/08 02:40:46;;;;;;;57.33;11.20;;;;;;;-145.18;0.00;102943.50;5075462;28;20237;-78
2021/10/08 02:43:13;;;;;;;55.73;10.80;;;;;;;-145.18;0.00;102943.50;5059586;28;20052;-77
2021/10/08 02:45:39;;;;;;;40.70;9.57;;;;;;;-145.18;0.00;102943.50;5072701;28;20074;-77
2021/10/08 02:48:05;;;;;;;51.80;11.67;;;;;;;-145.18;0.00;102943.50;5071208;28;20064;-76
2021/10/08 02:50:30;;;;;;;49.73;9.77;;;;;;;-145.18;0.00;102943.50;5070422;28;20367;-76
2021/10/08 02:52:56;;;;;;;47.87;10.83;;;;;;;-145.18;0.00;102943.50;5066931;28;20020;-77
2021/10/08 02:55:22;;;;;;;51.23;10.83;;;;;;;-145.18;0.00;102943.50;5068955;28;20261;-76
2021/10/08 02:57:47;;;;;;;57.40;11.77;;;;;;;-145.18;0.00;102943.50;5074833;28;20394;-77
2021/10/08 03:00:13;;;;;;;73.93;12.50;;;;;;;-145.18;0.00;102943.50;5070677;28;20420;-77
2021/10/08 03:02:39;;;;;;;70.07;12.70;;;;;;;-145.18;0.00;102943.50;5067801;28;20421;-76
2021/10/08 03:05:06;;;;;;;58.83;11.67;;;;;;;-145.18;0.00;102943.50;5070424;28;20028;-76
2021/10/08 03:07:31;;;;;;;62.27;12.23;;;;;;;-145.18;0.00;102943.50;5071516;28;20343;-77
2021/10/08 03:09:57;;;;;;;62.53;11.63;;;;;;;-145.18;0.00;102943.50;5068084;28;20475;-76
2021/10/08 03:12:23;;;;;;;75.20;13.37;;;;;;;-145.18;0.00;102943.50;5069239;28;20322;-77
2021/10/08 03:14:48;;;;;;;74.80;12.80;;;;;;;-145.18;0.00;102943.50;5073198;28;20111;-76
2021/10/08 03:17:14;;;;;;;73.53;13.50;;;;;;;-145.18;0.00;102943.50;5070577;28;20035;-77
2021/10/08 03:19:40;;;;;;;76.10;13.10;;;;;;;-145.18;0.00;102943.50;5073367;28;20050;-77
2021/10/08 03:22:06;;;;;;;67.87;12.70;;;;;;;-145.18;0.00;102943.50;5071140;28;20100;-77
2021/10/08 03:24:32;;;;;;;70.00;13.63;;;;;;;-145.18;0.00;102943.50;5068597;28;20039;-76
2021/10/08 03:26:58;;;;;;;84.00;14.33;;;;;;;-145.18;0.00;102943.50;5069424;28;20036;-76
2021/10/08 03:29:23;;;;;;;64.77;12.97;;;;;;;-145.18;0.00;102943.50;5071733;28;20039;-76
2021/10/08 03:31:49;;;;;;;77.00;13.20;;;;;;;-145.18;0.00;102943.50;5072084;28;20386;-77
2021/10/08 03:34:14;;;;;;;89.43;13.73;;;;;;;-145.18;0.00;102943.50;5072757;28;20046;-77
2021/10/08 03:39:27;;;;;;;63.37;12.47;;;;;;;-145.18;0.00;102943.50;5065997;28;20024;-76
2021/10/08 03:41:53;;;;;;;69.90;12.83;;;;;;;-145.18;0.00;102943.50;5066248;28;20024;-75
2021/10/08 03:44:19;;;;;;;72.47;13.70;;;;;;;-145.18;0.00;102943.50;5071654;28;20398;-75
2021/10/08 03:46:50;;;;;;;74.10;14.43;;;;;;;-145.18;0.00;102943.50;5068508;28;20035;-75
2021/10/08 03:49:16;;;;;;;79.40;13.77;;;;;;;-145.18;0.00;102943.50;5069596;28;20327;-75
2021/10/08 03:51:44;;;;;;;80.73;14.50;;;;;;;-145.18;0.00;102943.50;5074696;28;20054;-76
2021/10/08 03:54:10;;;;;;;69.97;13.37;;;;;;;-145.18;0.00;102943.50;5072747;28;20059;-75
2021/10/08 03:56:37;;;;;;;66.93;11.83;;;;;;;-145.18;0.00;102943.50;5072454;28;20560;-75
2021/10/08 03:59:02;;;;;;;61.87;11.83;;;;;;;-145.18;0.00;102943.50;5071359;28;20556;-75
2021/10/08 04:01:31;;;;;;;49.27;10.33;;;;;;;-145.18;0.00;102943.50;5073877;28;20238;-75
2021/10/08 04:04:01;;;;;;;65.60;11.70;;;;;;;-145.18;0.00;102943.50;5062397;28;20074;-75
2021/10/08 04:06:26;;;;;;;64.10;12.73;;;;;;;-145.18;0.00;102943.50;5063759;28;20142;-75
2021/10/08 04:08:52;;;;;;;59.03;11.70;;;;;;;-145.18;0.00;102943.50;5074139;28;20115;-75
2021/10/08 04:11:17;;;;;;;53.57;12.43;;;;;;;-145.18;0.00;102943.50;5071200;28;20036;-76
2021/10/08 04:13:43;;;;;;;60.10;10.83;;;;;;;-145.18;0.00;102943.50;5067694;28;20056;-75
2021/10/08 04:16:09;;;;;;;66.77;12.20;;;;;;;-145.18;0.00;102943.50;5075230;28;20172;-76
2021/10/08 04:18:34;;;;;;;62.93;12.53;;;;;;;-145.18;0.00;102943.50;5069820;28;20044;-75
2021/10/08 04:21:00;;;;;;;59.70;12.50;;;;;;;-145.18;0.00;102943.50;5072654;28;20031;-75
2021/10/08 04:23:26;;;;;;;64.93;12.40;;;;;;;-145.18;0.00;102943.50;5068593;28;20343;-74
2021/10/08 04:25:51;;;;;;;65.33;13.67;;;;;;;-145.18;0.00;102943.50;5075437;28;20028;-75
2021/10/08 04:28:17;;;;;;;56.47;12.50;;;;;;;-145.18;0.00;102943.50;5077781;28;20459;-75
2021/10/08 04:30:42;;;;;;;60.03;13.33;;;;;;;-145.18;0.00;102943.50;5072236;28;20296;-76
2021/10/08 04:33:25;;;;;;;60.17;12.73;;;;;;;-145.18;0.00;102943.50;5063120;28;20263;-75
2021/10/08 04:35:52;;;;;;;68.47;13.10;;;;;;;-145.18;0.00;102943.50;5073900;28;20040;-76
2021/10/08 04:38:18;;;;;;;68.57;13.10;;;;;;;-145.18;0.00;102943.50;5069943;28;20564;-76
2021/10/08 04:40:44;;;;;;;62.93;13.30;;;;;;;-145.18;0.00;102943.50;5074704;28;20111;-74
2021/10/08 04:43:10;;;;;;;69.67;13.17;;;;;;;-145.18;0.00;102943.50;5068939;28;20198;-76
2021/10/08 04:45:36;;;;;;;59.47;13.87;;;;;;;-145.18;0.00;102943.50;5064203;28;20159;-75
2021/10/08 04:48:02;;;;;;;56.83;12.87;;;;;;;-145.18;0.00;102943.50;5076274;28;20679;-74
2021/10/08 04:50:28;;;;;;;60.73;14.10;;;;;;;-145.18;0.00;102943.50;5076662;28;20268;-75
2021/10/08 04:52:53;;;;;;;55.40;12.33;;;;;;;-145.18;0.00;102943.50;5076323;28;20282;-75
2021/10/08 04:55:19;;;;;;;52.10;11.40;;;;;;;-145.18;0.00;102943.50;5074397;28;20028;-75
2021/10/08 04:57:45;;;;;;;56.43;12.60;;;;;;;-145.18;0.00;102943.50;5078077;28;20539;-75
2021/10/08 05:00:11;;;;;;;62.90;12.90;;;;;;;-145.18;0.00;102943.50;5076292;28;20191;-75
2021/10/08 05:02:36;;;;;;;53.93;11.83;;;;;;;-145.18;0.00;102943.50;5074392;28;20047;-75
2021/10/08 05:05:03;;;;;;;55.80;11.87;;;;;;;-145.18;0.00;102943.50;5075197;28;20707;-75
2021/10/08 05:07:28;;;;;;;54.97;12.83;;;;;;;-145.18;0.00;102943.50;5076810;28;20035;-75
2021/10/08 05:09:53;;;;;;;51.23;12.53;;;;;;;-145.18;0.00;102943.50;5076671;28;20506;-75
2021/10/08 05:12:20;;;;;;;55.70;11.63;;;;;;;-145.18;0.00;102943.50;5072335;28;20031;-75
2021/10/08 05:14:46;;;;;;;48.47;11.97;;;;;;;-145.18;0.00;102943.50;5074899;28;20047;-75
2021/10/08 05:17:11;;;;;;;43.80;11.80;;;;;;;-145.18;0.00;102943.50;5079647;28;20274;-75
2021/10/08 05:19:37;;;;;;;50.17;12.40;;;;;;;-145.18;0.00;102943.50;5075012;28;20020;-76
2021/10/08 05:22:02;;;;;;;50.83;12.63;;;;;;;-145.18;0.00;102943.50;5065472;28;20433;-75
2021/10/08 05:24:28;;;;;;;60.53;13.53;;;;;;;-145.18;0.00;102943.50;5073654;28;20051;-75
2021/10/08 05:26:55;;;;;;;62.63;12.50;;;;;;;-145.18;0.00;102943.50;5076762;28;20543;-75
2021/10/08 05:29:20;;;;;;;59.17;13.57;;;;;;;-145.18;0.00;102943.50;5072309;28;20245;-75
2021/10/08 05:31:46;;;;;;;56.47;12.80;;;;;;;-145.18;0.00;102943.50;5078484;28;20343;-75
2021/10/08 05:34:12;;;;;;;52.97;14.00;;;;;;;-145.18;0.00;102943.50;5072395;28;20024;-75
2021/10/08 05:36:38;;;;;;;57.20;14.07;;;;;;;-145.18;0.00;102943.50;5070567;28;20021;-74
2021/10/08 05:39:04;;;;;;;58.73;14.70;;;;;;;-145.18;0.00;102943.50;5062776;28;20941;-75
2021/10/08 05:41:30;;;;;;;61.37;14.13;;;;;;;-145.18;0.00;102943.50;5079467;28;20640;-76
2021/10/08 05:43:56;;;;;;;63.10;13.57;;;;;;;-145.18;0.00;102943.50;5073323;28;20024;-74
2021/10/08 05:46:21;;;;;;;62.60;14.67;;;;;;;-145.18;0.00;102943.50;5076020;28;20473;-75
2021/10/08 05:48:47;;;;;;;52.40;12.97;;;;;;;-145.18;0.00;102943.50;5072132;28;20029;-76
2021/10/08 05:51:13;;;;;;;49.43;12.80;;;;;;;-145.18;0.00;102943.50;5069631;28;20028;-76
2021/10/08 05:53:38;;;;;;;55.23;12.50;;;;;;;-145.18;0.00;102943.50;5065968;28;20032;-75
2021/10/08 05:56:07;;;;;;;51.33;12.90;;;;;;;-145.18;0.00;102943.50;5067500;28;20172;-75
2021/10/08 05:58:32;;;;;;;47.93;12.53;;;;;;;-145.18;0.00;102943.50;5066909;28;20461;-76
2021/10/08 06:00:58;;;;;;;49.57;12.30;;;;;;;-145.18;0.00;102943.50;5073574;28;20266;-76
2021/10/08 06:03:23;;;;;;;45.53;12.60;;;;;;;-145.18;0.00;102943.50;5067191;28;20017;-77
2021/10/08 06:05:49;;;;;;;48.27;12.23;;;;;;;-145.18;0.00;102943.50;5078725;28;20042;-76
2021/10/08 06:08:14;;;;;;;40.63;11.50;;;;;;;-145.18;0.00;102943.50;5073649;28;20284;-75
2021/10/08 06:10:40;;;;;;;53.43;12.07;;;;;;;-145.18;0.00;102943.50;5074468;28;20040;-75
2021/10/08 06:13:06;;;;;;;36.63;11.67;;;;;;;-145.18;0.00;102943.50;5067376;28;20578;-75
2021/10/08 06:15:32;;;;;;;50.17;12.57;;;;;;;-145.18;0.00;102943.50;5066727;28;20024;-77
2021/10/08 06:17:57;;;;;;;48.47;13.13;;;;;;;-145.18;0.00;102943.50;5069423;28;20051;-75
2021/10/08 06:20:25;;;;;;;50.30;14.00;;;;;;;-145.18;0.00;102943.50;5069939;28;20016;-75
2021/10/08 06:22:51;;;;;;;55.57;13.47;;;;;;;-145.18;0.00;102943.50;5075764;28;20622;-75
2021/10/08 06:25:17;;;;;;;45.63;12.37;;;;;;;-145.18;0.00;102943.50;5080003;28;20024;-76
2021/10/08 06:27:42;;;;;;;52.27;13.47;;;;;;;-145.18;0.00;102943.50;5079941;28;20024;-77
2021/10/08 06:30:08;;;;;;;46.17;12.77;;;;;;;-145.18;0.00;102943.50;5061864;28;20200;-76
2021/10/08 06:32:34;;;;;;;43.20;13.93;;;;;;;-145.18;0.00;102943.50;5059295;28;20029;-76
2021/10/08 06:34:59;;;;;;;43.33;12.90;;;;;;;-145.18;0.00;102943.50;5077201;28;20028;-77
2021/10/08 06:37:25;;;;;;;37.10;12.27;;;;;;;-145.18;0.00;102943.50;5079892;28;20030;-77
2021/10/08 06:39:50;;;;;;;36.50;11.77;;;;;;;-145.18;0.00;102943.50;5063862;28;20422;-76
2021/10/08 06:42:16;;;;;;;37.37;12.00;;;;;;;-145.18;0.00;102943.50;5066549;28;20060;-76
2021/10/08 06:44:42;;;;;;;36.00;11.83;;;;;;;-145.18;0.00;102943.50;5079459;28;20294;-76
2021/10/08 06:47:07;;;;;;;36.67;11.50;;;;;;;-145.18;0.00;102943.50;5070516;28;20028;-77
2021/10/08 06:49:34;;;;;;;32.53;12.03;;;;;;;-145.18;0.00;102943.50;5065862;28;20253;-77
2021/10/08 06:51:59;;;;;;;31.33;11.43;;;;;;;-145.18;0.00;102943.50;5059410;28;20054;-76
2021/10/08 06:54:25;;;;;;;40.60;12.00;;;;;;;-145.18;0.00;102943.50;5071690;28;20115;-77
2021/10/08 06:56:50;;;;;;;32.83;11.67;;;;;;;-145.18;0.00;102943.50;5079652;28;20387;-76
2021/10/08 06:59:16;;;;;;;29.67;10.27;;;;;;;-145.18;0.00;102943.50;5068339;28;20056;-77
2021/10/08 07:01:41;;;;;;;28.50;10.13;;;;;;;-145.18;0.00;102943.50;5058809;28;20024;-77
2021/10/08 07:04:07;;;;;;;35.40;11.30;;;;;;;-145.18;0.00;102943.50;5063326;28;20020;-76
2021/10/08 07:06:32;;;;;;;34.70;10.97;;;;;;;-145.18;0.00;102943.50;5059610;28;20036;-76
2021/10/08 07:08:58;;;;;;;34.43;11.60;;;;;;;-145.18;0.00;102943.50;5067611;28;20032;-77
2021/10/08 07:11:23;;;;;;;28.53;10.87;;;;;;;-145.18;0.00;102943.50;5074918;28;20041;-76
2021/10/08 07:13:51;;;;;;;32.23;11.67;;;;;;;-145.18;0.00;102943.50;5062942;28;20406;-77
2021/10/08 07:16:16;;;;;;;33.40;12.57;;;;;;;-145.18;0.00;102943.50;5059723;28;20024;-77
2021/10/08 07:18:49;;;;;;;38.80;14.00;;;;;;;-145.18;0.00;102943.50;5065412;28;20032;-76
2021/10/08 07:21:15;;;;;;;38.03;12.90;;;;;;;-145.18;0.00;102943.50;5079438;28;20509;-77
2021/10/08 07:23:45;;;;;;;37.83;13.80;;;;;;;-145.18;0.00;102943.50;5072480;28;20077;-77
2021/10/08 07:26:11;;;;;;;39.63;14.03;;;;;;;-145.18;0.00;102943.50;5064861;28;20024;-77
2021/10/08 07:28:38;;;;;;;39.30;14.43;;;;;;;-145.18;0.00;102943.50;5064905;28;20032;-75
2021/10/08 07:31:04;;;;;;;36.57;14.07;;;;;;;-145.18;0.00;102943.50;5079002;28;20086;-77
2021/10/08 07:33:30;;;;;;;31.07;12.90;;;;;;;-145.18;0.00;102943.50;5076371;28;20090;-77
2021/10/08 07:35:55;;;;;;;29.37;12.33;;;;;;;-145.18;0.00;102943.50;5074630;28;20181;-77
2021/10/08 07:38:21;;;;;;;23.83;11.80;;;;;;;-145.18;0.00;102943.50;5065979;28;20020;-77
2021/10/08 07:40:46;;;;;;;19.10;8.60;;;;;;;-145.18;0.00;102943.50;5059256;28;20107;-77
2021/10/08 07:43:12;;;;;;;15.57;7.27;;;;;;;-145.18;0.00;102943.50;5061219;28;20031;-78
2021/10/08 07:45:38;;;;;;;13.33;7.47;;;;;;;-145.18;0.00;102943.50;5079076;28;20031;-78
2021/10/08 07:48:04;;;;;;;12.50;6.80;;;;;;;-145.18;0.00;102943.50;5078147;28;20024;-77
2021/10/08 07:50:29;;;;;;;12.80;6.13;;;;;;;-145.18;0.00;102943.50;5074751;28;20031;-78
2021/10/08 07:52:55;;;;;;;13.83;6.77;;;;;;;-145.18;0.00;102943.50;5079715;28;20043;-77
2021/10/08 07:55:20;;;;;;;12.37;6.70;;;;;;;-145.18;0.00;102943.50;5077024;28;20030;-76
2021/10/08 07:57:46;;;;;;;13.83;6.53;;;;;;;-145.18;0.00;102943.50;5079344;28;20020;-76
2021/10/08 08:00:13;;;;;;;13.93;7.53;;;;;;;-145.18;0.00;102943.50;5059922;28;20033;-74
2021/10/08 08:02:43;;;;;;;12.83;7.27;;;;;;;-145.18;0.00;102943.50;5061825;28;20021;-73
2021/10/08 08:05:11;;;;;;;12.63;7.03;;;;;;;-145.18;0.00;102943.50;5075213;28;20032;-72
2021/10/08 08:07:37;;;;;;;11.03;6.30;;;;;;;-145.18;0.00;102943.50;5062380;28;20020;-72
2021/10/08 08:10:05;;;;;;;12.27;6.70;;;;;;;-145.18;0.00;102943.50;5079531;28;20117;-71
2021/10/08 08:12:30;;;;;;;13.07;7.40;;;;;;;-145.18;0.00;102943.50;5082578;28;20027;-71
2021/10/08 08:14:56;;;;;;;12.27;6.95;;;;;;;-145.18;0.00;102943.50;5065033;28;20096;-72
2021/10/08 08:17:21;;;;;;;12.07;6.90;;;;;;;-145.18;0.00;102943.50;5062019;28;20033;-72
2021/10/08 08:19:47;;;;;;;12.52;6.55;;;;;;;-145.18;0.00;102943.50;5077722;28;20107;-72
2021/10/08 08:22:13;;;;;;;12.75;6.60;;;;;;;-145.18;0.00;102943.50;5082510;28;20473;-71
2021/10/08 08:24:38;;;;;;;15.75;7.47;;;;;;;-145.18;0.00;102943.50;5072325;28;20050;-72
2021/10/08 08:27:04;;;;;;;11.23;6.70;;;;;;;-145.18;0.00;102943.50;5082031;28;20101;-72
2021/10/08 08:29:29;;;;;;;11.43;6.07;;;;;;;-145.18;0.00;102943.50;5068790;28;20051;-72
2021/10/08 08:31:55;;;;;;;10.52;6.40;;;;;;;-145.18;0.00;102943.50;5061837;28;20032;-72
2021/10/08 08:34:22;;;;;;;10.18;6.10;;;;;;;-145.18;0.00;102943.50;5073394;28;20028;-73
2021/10/08 08:36:47;;;;;;;12.32;6.43;;;;;;;-145.18;0.00;102943.50;5081477;28;20310;-73
2021/10/08 08:39:15;;;;;;;10.10;6.60;;;;;;;-145.18;0.00;102943.50;5070951;28;20116;-73
2021/10/08 08:41:40;;;;;;;12.93;6.70;;;;;;;-145.18;0.00;102943.50;5061825;28;20025;-74
2021/10/08 08:44:06;;;;;;;12.85;7.05;;;;;;;-145.18;0.00;102943.50;5071468;28;20227;-76
2021/10/08 08:46:33;;;;;;;12.60;7.50;;;;;;;-145.18;0.00;102943.50;5082109;28;20095;-77
2021/10/08 08:49:00;;;;;;;11.48;6.80;;;;;;;-145.18;0.00;102943.50;5075342;28;20120;-78
2021/10/08 08:51:26;;;;;;;13.20;6.63;;;;;;;-145.18;0.00;102943.50;5082194;28;20130;-77
2021/10/08 08:53:57;;;;;;;12.07;6.45;;;;;;;-145.18;0.00;102943.50;5074484;28;20112;-77
2021/10/08 08:56:23;;;;;;;10.70;6.88;;;;;;;-145.18;0.00;102943.50;5061542;28;20060;-76
2021/10/08 08:59:10;;;;;;;12.48;6.97;;;;;;;-145.18;0.00;102943.50;5068960;28;20056;-76
2021/10/08 09:01:57;;;;;;;12.53;7.37;;;;;;;-145.18;0.00;102943.50;5081658;28;20189;-75
2021/10/08 09:04:24;;;;;;;16.83;7.87;;;;;;;-145.18;0.00;102943.50;5068731;28;20041;-77
2021/10/08 09:06:49;;;;;;;14.40;7.93;;;;;;;-145.18;0.00;102943.50;5067459;28;20036;-76
2021/10/08 09:09:39;;;;;;;17.27;8.13;;;;;;;-145.18;0.00;102943.50;5070991;28;20301;-75
2021/10/08 09:12:05;;;;;;;14.30;7.37;;;;;;;-145.18;0.00;102943.50;5070139;28;20118;-76
2021/10/08 09:14:30;;;;;;;14.60;8.00;;;;;;;-145.18;0.00;102943.50;5067889;28;20119;-77
2021/10/08 09:17:11;;;;;;;13.50;6.83;;;;;;;-145.18;0.00;102943.50;5061545;28;20031;-76
2021/10/08 09:20:04;;;;;;;12.67;7.70;;;;;;;-145.18;0.00;102943.50;5072236;28;20227;-76
2021/10/08 09:22:59;;;;;;;14.18;7.80;;;;;;;-145.18;0.00;102943.50;5081496;28;20632;-76
2021/10/08 09:25:36;;;;;;;12.83;7.17;;;;;;;-145.18;0.00;102943.50;5055521;28;20043;-76
2021/10/08 09:28:10;;;;;;;11.07;6.30;;;;;;;-145.18;0.00;102943.50;5080380;28;20031;-75
2021/10/08 09:30:42;;;;;;;13.03;6.30;;;;;;;-145.18;0.00;102943.50;5061152;28;20024;-76
2021/10/08 09:33:10;;;;;;;11.73;6.57;;;;;;;-145.18;0.00;102943.50;5062303;28;20055;-75
2021/10/08 09:35:36;;;;;;;12.93;7.47;;;;;;;-145.18;0.00;102943.50;5080863;28;20119;-75
2021/10/08 09:38:06;;;;;;;12.27;7.07;;;;;;;-145.18;0.00;102943.50;5080420;28;20378;-74
2021/10/08 09:40:43;;;;;;;10.67;6.57;;;;;;;-145.18;0.00;102943.50;5061022;28;20211;-75
2021/10/08 09:43:12;;;;;;;13.03;6.37;;;;;;;-145.18;0.00;102943.50;5064125;28;20028;-75
2021/10/08 09:45:52;;;;;;;13.40;6.60;;;;;;;-145.18;0.00;102943.50;5083398;28;20183;-75
2021/10/08 09:48:23;;;;;;;11.87;6.20;;;;;;;-145.18;0.00;102943.50;5071155;28;20576;-75
2021/10/08 09:51:09;;;;;;;12.70;7.10;;;;;;;-145.18;0.00;102943.50;5077904;28;20270;-75
2021/10/08 09:53:37;;;;;;;13.63;6.87;;;;;;;-145.18;0.00;102943.50;5078315;28;20119;-75
2021/10/08 09:56:23;;;;;;;10.50;6.33;;;;;;;-145.18;0.00;102943.50;5070556;28;20028;-74
2021/10/08 09:58:52;;;;;;;11.37;5.20;;;;;;;-145.18;0.00;102943.50;5072978;28;20280;-74
2021/10/08 10:01:28;;;;;;;9.60;4.90;;;;;;;-145.18;0.00;102943.50;5060713;28;20528;-75
2021/10/08 10:03:55;;;;;;;8.63;4.70;;;;;;;-145.18;0.00;102943.50;5064712;28;20086;-74
2021/10/08 10:06:22;;;;;;;9.53;4.77;;;;;;;-145.18;0.00;102943.50;5060330;28;20067;-74
2021/10/08 10:08:47;;;;;;;10.37;5.33;;;;;;;-145.18;0.00;102943.50;5067265;28;20035;-75
2021/10/08 10:11:21;;;;;;;8.47;4.90;;;;;;;-145.18;0.00;102943.50;5070182;28;20048;-75
2021/10/08 10:13:48;;;;;;;8.67;4.50;;;;;;;-145.18;0.00;102943.50;5067226;28;20103;-74
2021/10/08 10:16:16;;;;;;;13.60;4.40;;;;;;;-145.18;0.00;102943.50;5080043;28;20606;-73
2021/10/08 10:18:46;;;;;;;8.17;3.83;;;;;;;-145.18;0.00;102943.50;5073658;28;20025;-73
2021/10/08 10:21:12;;;;;;;8.43;4.10;;;;;;;-145.18;0.00;102943.50;5059672;28;20032;-73
2021/10/08 10:23:39;;;;;;;7.03;3.70;;;;;;;-145.18;0.00;102943.50;5064470;28;20341;-73
2021/10/08 10:26:05;;;;;;;10.37;3.50;;;;;;;-145.18;0.00;102943.50;5058830;28;20026;-74
2021/10/08 10:28:31;;;;;;;6.37;3.40;;;;;;;-145.18;0.00;102943.50;5074757;28;20109;-74
2021/10/08 10:30:57;;;;;;;9.17;3.53;;;;;;;-145.18;0.00;102943.50;5059785;28;20439;-74
2021/10/08 10:33:28;;;;;;;13.30;3.87;;;;;;;-145.18;0.00;102943.50;5062725;28;20232;-74
2021/10/08 10:35:57;;;;;;;7.23;3.80;;;;;;;-145.18;0.00;102943.50;5080087;28;20024;-75
2021/10/08 10:38:43;;;;;;;5.67;3.27;;;;;;;-145.18;0.00;102943.50;5079572;28;20275;-74
2021/10/08 10:41:28;;;;;;;9.07;3.90;;;;;;;-145.18;0.00;102943.50;5066375;28;20413;-74
2021/10/08 10:43:56;;;;;;;6.97;3.90;;;;;;;-145.18;0.00;102943.50;5073772;28;20429;-74
2021/10/08 10:46:58;;;;;;;7.93;4.10;;;;;;;-145.18;0.00;102943.50;5079728;28;20543;-74
2021/10/08 10:52:17;;;;;;;6.72;3.63;;;;;;;-145.18;0.00;102943.50;5055432;28;20036;-74
2021/10/08 10:55:07;;;;;;;6.23;3.23;;;;;;;-145.18;0.00;102943.50;5064791;28;20060;-73
2021/10/08 10:57:55;;;;;;;9.17;4.10;;;;;;;-145.18;0.00;102943.50;5067835;28;20107;-74
2021/10/08 11:00:49;;;;;;;7.63;3.57;;;;;;;-145.18;0.00;102943.50;5059180;28;20036;-74
2021/10/08 11:03:18;;;;;;;6.23;3.40;;;;;;;-145.18;0.00;102943.50;5059738;28;20192;-74
2021/10/08 11:06:07;;;;;;;8.03;3.60;;;;;;;-145.18;0.00;102943.50;5070096;28;20142;-75
2021/10/08 11:08:33;;;;;;;7.67;3.53;;;;;;;-145.18;0.00;102943.50;5077461;28;20074;-73
2021/10/08 11:11:18;;;;;;;7.07;3.50;;;;;;;-145.18;0.00;102943.50;5078747;28;20485;-75
2021/10/08 11:13:46;;;;;;;5.97;2.47;;;;;;;-145.18;0.00;102943.50;5072325;28;20090;-75
2021/10/08 11:16:15;;;;;;;6.67;3.33;;;;;;;-145.18;0.00;102943.50;5059306;28;20393;-75